createdAt,value
2022-08-22T00:00:21.073Z,100119.43
2022-08-22T00:01:23.902Z,100118.18
2022-08-22T00:02:23.120Z,100117.68
2022-08-22T00:02:43.756Z,100107.76
2022-08-22T00:02:46.874Z,100109.33
2022-08-22T00:02:53.911Z,100132.35
2022-08-22T00:02:59.073Z,100129.98
2022-08-22T00:03:00.125Z,100149.86
2022-08-22T00:03:10.011Z,100122.69
2022-08-22T00:04:19.067Z,100117.64
2022-08-22T00:05:21.067Z,100118.62
2022-08-22T00:06:21.067Z,100119.24
2022-08-22T00:07:19.063Z,100117.40
2022-08-22T00:08:19.066Z,100116.28
2022-08-22T00:09:21.064Z,100118.56
2022-08-22T00:10:25.206Z,100118.24
2022-08-22T00:11:23.104Z,100120.35
2022-08-22T00:12:19.065Z,100120.25
2022-08-22T00:13:17.064Z,100121.83
2022-08-22T00:14:20.068Z,100120.08
2022-08-22T00:15:42.449Z,100120.41
2022-08-22T00:16:21.075Z,100116.70
2022-08-22T00:17:19.077Z,100117.28
2022-08-22T00:18:19.067Z,100116.41
2022-08-22T00:19:19.065Z,100116.09
2022-08-22T00:20:17.060Z,100116.27
2022-08-22T00:21:17.086Z,100113.74
2022-08-22T00:22:19.059Z,100115.57
2022-08-22T00:23:21.056Z,100114.95
2022-08-22T00:24:19.056Z,100116.96
2022-08-22T00:25:24.693Z,100117.29
2022-08-22T00:26:21.071Z,100116.75
2022-08-22T00:27:17.066Z,100121.21
2022-08-22T00:28:19.060Z,100119.04
2022-08-22T00:29:19.057Z,100117.76
2022-08-22T00:30:14.061Z,100116.07
2022-08-22T00:31:19.067Z,100114.84
2022-08-22T00:32:19.059Z,100115.21
2022-08-22T00:33:19.057Z,100111.60
2022-08-22T00:34:19.056Z,100114.98
2022-08-22T00:35:17.060Z,100112.97
2022-08-22T00:36:18.067Z,100112.91
2022-08-22T00:37:21.060Z,100114.10
2022-08-22T00:38:16.063Z,100115.45
2022-08-22T00:39:16.062Z,100114.83
2022-08-22T00:40:19.202Z,100114.60
2022-08-22T00:41:21.062Z,100114.94
2022-08-22T00:42:31.241Z,100112.55
2022-08-22T00:43:23.788Z,100113.93
2022-08-22T00:44:19.058Z,100112.18
2022-08-22T00:45:19.061Z,100109.24
2022-08-22T00:46:19.073Z,100110.99
2022-08-22T00:47:19.063Z,100110.16
2022-08-22T00:48:21.062Z,100106.18
2022-08-22T00:49:19.059Z,100107.18
2022-08-22T00:50:21.063Z,100101.21
2022-08-22T00:51:19.071Z,100097.76
2022-08-22T00:52:19.064Z,100095.71
2022-08-22T00:53:19.066Z,100094.60
2022-08-22T00:54:21.067Z,100091.12
2022-08-22T00:55:19.062Z,100092.07
2022-08-22T00:56:19.075Z,100090.88
2022-08-22T00:57:21.063Z,100095.87
2022-08-22T00:58:19.061Z,100091.95
2022-08-22T00:59:23.947Z,100093.84
2022-08-22T01:00:24.062Z,100100.27
2022-08-22T01:01:13.129Z,100099.59
2022-08-22T01:02:21.065Z,100103.35
2022-08-22T01:03:23.064Z,100102.25
2022-08-22T01:04:19.060Z,100101.70
2022-08-22T01:05:19.065Z,100104.45
2022-08-22T01:06:19.071Z,100100.46
2022-08-22T01:07:19.064Z,100103.50
2022-08-22T01:08:19.061Z,100102.99
2022-08-22T01:09:21.066Z,100105.74
2022-08-22T01:10:20.071Z,100107.71
2022-08-22T01:11:19.068Z,100105.14
2022-08-22T01:12:19.065Z,100105.36
2022-08-22T01:13:19.062Z,100103.39
2022-08-22T01:14:19.065Z,100104.36
2022-08-22T01:15:17.072Z,100103.88
2022-08-22T01:16:21.064Z,100106.53
2022-08-22T01:17:19.064Z,100105.76
2022-08-22T01:18:21.061Z,100110.07
2022-08-22T01:19:21.065Z,100108.69
2022-08-22T01:20:19.059Z,100107.95
2022-08-22T01:21:24.275Z,100107.02
2022-08-22T01:22:25.101Z,100104.93
2022-08-22T01:23:19.055Z,100102.60
2022-08-22T01:24:19.073Z,100099.42
2022-08-22T01:25:25.881Z,100096.50
2022-08-22T01:26:21.059Z,100099.44
2022-08-22T01:27:19.071Z,100095.20
2022-08-22T01:28:19.058Z,100094.31
2022-08-22T01:29:19.057Z,100092.54
2022-08-22T01:30:21.075Z,100093.15
2022-08-22T01:31:19.058Z,100092.26
2022-08-22T01:32:19.067Z,100093.99
2022-08-22T01:33:19.059Z,100093.40
2022-08-22T01:34:19.061Z,100097.14
2022-08-22T01:35:19.055Z,100096.55
2022-08-22T01:36:19.058Z,100092.89
2022-08-22T01:37:19.071Z,100093.13
2022-08-22T01:38:19.062Z,100089.08
2022-08-22T01:39:19.060Z,100087.29
2022-08-22T01:40:19.095Z,100087.46
2022-08-22T01:41:21.067Z,100088.34
2022-08-22T01:42:19.061Z,100085.72
2022-08-22T01:43:19.062Z,100087.15
2022-08-22T01:44:23.060Z,100085.64
2022-08-22T01:45:19.060Z,100083.23
2022-08-22T01:46:21.579Z,100080.99
2022-08-22T01:47:19.064Z,100081.34
2022-08-22T01:48:20.068Z,100082.55
2022-08-22T01:49:18.063Z,100081.54
2022-08-22T01:50:22.059Z,100083.24
2022-08-22T01:51:19.057Z,100083.18
2022-08-22T01:52:19.580Z,100083.12
2022-08-22T01:53:18.073Z,100086.12
2022-08-22T01:54:19.063Z,100082.08
2022-08-22T01:55:17.061Z,100078.77
2022-08-22T01:56:18.064Z,100076.33
2022-08-22T01:57:11.067Z,100075.41
2022-08-22T01:58:19.082Z,100075.15
2022-08-22T01:59:13.065Z,100075.60
2022-08-22T02:00:17.063Z,100070.30
2022-08-22T02:01:21.117Z,100070.80
2022-08-22T02:02:21.073Z,100065.60
2022-08-22T02:03:19.064Z,100066.84
2022-08-22T02:04:21.063Z,100064.86
2022-08-22T02:05:21.071Z,100060.71
2022-08-22T02:06:17.064Z,100060.37
2022-08-22T02:07:21.147Z,100058.05
2022-08-22T02:08:21.651Z,100054.22
2022-08-22T02:09:21.065Z,100054.43
2022-08-22T02:10:19.061Z,100050.38
2022-08-22T02:11:11.063Z,100048.85
2022-08-22T02:12:23.067Z,100041.77
2022-08-22T02:13:19.070Z,100040.59
2022-08-22T02:14:19.065Z,100040.77
2022-08-22T02:15:19.063Z,100038.88
2022-08-22T02:16:21.068Z,100041.04
2022-08-22T02:17:21.063Z,100045.50
2022-08-22T02:18:19.072Z,100043.47
2022-08-22T02:19:19.066Z,100043.50
2022-08-22T02:20:23.056Z,100043.53
2022-08-22T02:21:16.058Z,100041.71
2022-08-22T02:22:19.058Z,100040.26
2022-08-22T02:23:19.065Z,100038.60
2022-08-22T02:24:21.059Z,100035.14
2022-08-22T02:25:16.057Z,100035.12
2022-08-22T02:26:19.053Z,100033.46
2022-08-22T02:27:19.059Z,100030.01
2022-08-22T02:28:20.071Z,100028.88
2022-08-22T02:29:15.058Z,100029.05
2022-08-22T02:30:19.058Z,100030.42
2022-08-22T02:31:20.059Z,100034.68
2022-08-22T02:32:23.088Z,100034.60
2022-08-22T02:33:20.071Z,100037.47
2022-08-22T02:34:19.061Z,100037.41
2022-08-22T02:35:19.063Z,100037.39
2022-08-22T02:36:19.063Z,100036.23
2022-08-22T02:37:18.062Z,100035.87
2022-08-22T02:38:19.061Z,100035.04
2022-08-22T02:39:21.060Z,100033.84
2022-08-22T02:40:19.120Z,100035.94
2022-08-22T02:41:21.063Z,100036.23
2022-08-22T02:42:23.059Z,100034.67
2022-08-22T02:43:23.062Z,100036.88
2022-08-22T02:44:19.068Z,100031.27
2022-08-22T02:45:19.060Z,100029.22
2022-08-22T02:46:21.058Z,100027.19
2022-08-22T02:47:16.058Z,100026.55
2022-08-22T02:48:19.083Z,100029.77
2022-08-22T02:49:20.061Z,100030.10
2022-08-22T02:50:21.062Z,100027.38
2022-08-22T02:51:19.059Z,100029.37
2022-08-22T02:52:16.063Z,100027.94
2022-08-22T02:53:19.069Z,100025.39
2022-08-22T02:54:19.063Z,100028.55
2022-08-22T02:55:19.060Z,100034.77
2022-08-22T02:56:20.060Z,100035.34
2022-08-22T02:57:19.063Z,100036.63
2022-08-22T02:58:19.070Z,100038.37
2022-08-22T02:59:21.062Z,100035.01
2022-08-22T03:00:32.319Z,100038.12
2022-08-22T03:01:21.239Z,100036.93
2022-08-22T03:02:19.059Z,100032.56
2022-08-22T03:03:18.062Z,100034.61
2022-08-22T03:04:16.070Z,100035.09
2022-08-22T03:05:21.065Z,100039.45
2022-08-22T03:06:22.183Z,100041.93
2022-08-22T03:07:21.060Z,100041.45
2022-08-22T03:08:17.068Z,100043.81
2022-08-22T03:09:19.070Z,100047.45
2022-08-22T03:10:18.063Z,100048.67
2022-08-22T03:11:19.062Z,100048.88
2022-08-22T03:12:18.067Z,100047.23
2022-08-22T03:13:17.066Z,100047.30
2022-08-22T03:14:19.066Z,100043.78
2022-08-22T03:15:19.062Z,100042.11
2022-08-22T03:16:21.061Z,100037.95
2022-08-22T03:17:21.064Z,100041.64
2022-08-22T03:18:19.073Z,100041.10
2022-08-22T03:19:19.126Z,100042.12
2022-08-22T03:20:18.055Z,100040.36
2022-08-22T03:21:21.078Z,100042.18
2022-08-22T03:22:18.056Z,100046.17
2022-08-22T03:23:21.072Z,100046.41
2022-08-22T03:24:19.059Z,100049.14
2022-08-22T03:25:19.058Z,100049.27
2022-08-22T03:26:19.057Z,100052.90
2022-08-22T03:27:32.235Z,100049.60
2022-08-22T03:28:20.759Z,100050.48
2022-08-22T03:29:19.059Z,100050.93
2022-08-22T03:30:19.057Z,100050.84
2022-08-22T03:31:15.057Z,100055.24
2022-08-22T03:32:18.059Z,100058.52
2022-08-22T03:33:19.067Z,100058.96
2022-08-22T03:34:18.061Z,100064.22
2022-08-22T03:35:11.058Z,100063.67
2022-08-22T03:36:19.060Z,100068.78
2022-08-22T03:37:22.068Z,100071.49
2022-08-22T03:38:21.071Z,100072.64
2022-08-22T03:39:18.061Z,100069.45
2022-08-22T03:40:19.147Z,100065.86
2022-08-22T03:41:19.057Z,100065.05
2022-08-22T03:42:19.060Z,100063.53
2022-08-22T03:43:21.068Z,100058.45
2022-08-22T03:44:21.063Z,100054.92
2022-08-22T03:45:19.062Z,100058.57
2022-08-22T03:46:19.063Z,100056.04
2022-08-22T03:47:19.063Z,100058.14
2022-08-22T03:48:19.060Z,100053.82
2022-08-22T03:49:19.071Z,100053.96
2022-08-22T03:50:23.062Z,100049.07
2022-08-22T03:51:19.060Z,100047.95
2022-08-22T03:52:19.062Z,100043.86
2022-08-22T03:53:20.062Z,100036.95
2022-08-22T03:54:19.069Z,100037.79
2022-08-22T03:55:19.064Z,100034.67
2022-08-22T03:56:19.061Z,100031.63
2022-08-22T03:57:23.066Z,100033.19
2022-08-22T03:58:27.631Z,100028.24
2022-08-22T03:59:23.092Z,100026.98
2022-08-22T04:00:19.071Z,100023.21
2022-08-22T04:01:19.120Z,100024.07
2022-08-22T04:02:24.730Z,100020.72
2022-08-22T04:03:21.087Z,100021.62
2022-08-22T04:04:23.064Z,100020.62
2022-08-22T04:05:19.212Z,100017.20
2022-08-22T04:06:23.063Z,100018.88
2022-08-22T04:07:32.201Z,100018.59
2022-08-22T04:08:25.567Z,100022.98
2022-08-22T04:09:21.067Z,100024.78
2022-08-22T04:10:19.060Z,100026.15
2022-08-22T04:11:19.069Z,100030.54
2022-08-22T04:12:19.072Z,100032.29
2022-08-22T04:13:19.064Z,100030.47
2022-08-22T04:14:21.091Z,100029.48
2022-08-22T04:15:21.063Z,100030.02
2022-08-22T04:16:19.064Z,100032.33
2022-08-22T04:17:23.073Z,100037.34
2022-08-22T04:18:21.073Z,100035.70
2022-08-22T04:19:19.066Z,100037.78
2022-08-22T04:20:19.056Z,100039.54
2022-08-22T04:21:21.060Z,100039.83
2022-08-22T04:22:19.057Z,100038.73
2022-08-22T04:23:21.065Z,100037.68
2022-08-22T04:24:21.061Z,100037.20
2022-08-22T04:25:18.079Z,100034.83
2022-08-22T04:26:19.058Z,100034.00
2022-08-22T04:27:19.060Z,100030.82
2022-08-22T04:28:19.057Z,100034.77
2022-08-22T04:29:21.066Z,100034.11
2022-08-22T04:30:21.060Z,100034.38
2022-08-22T04:31:11.060Z,100030.87
2022-08-22T04:32:19.061Z,100033.53
2022-08-22T04:33:19.061Z,100028.14
2022-08-22T04:34:19.060Z,100026.12
2022-08-22T04:35:17.060Z,100022.73
2022-08-22T04:36:18.059Z,100019.95
2022-08-22T04:37:22.060Z,100020.91
2022-08-22T04:38:19.060Z,100020.27
2022-08-22T04:39:18.067Z,100019.29
2022-08-22T04:40:21.126Z,100021.92
2022-08-22T04:41:13.060Z,100020.42
2022-08-22T04:42:32.270Z,100019.75
2022-08-22T04:43:18.108Z,100018.78
2022-08-22T04:44:17.061Z,100019.53
2022-08-22T04:45:20.060Z,100016.99
2022-08-22T04:46:19.058Z,100016.11
2022-08-22T04:47:19.072Z,100011.48
2022-08-22T04:48:19.062Z,100009.27
2022-08-22T04:49:21.062Z,100010.47
2022-08-22T04:50:19.064Z,100010.88
2022-08-22T04:51:19.062Z,100006.77
2022-08-22T04:52:23.062Z,100006.15
2022-08-22T04:53:23.301Z,100001.58
2022-08-22T04:54:21.070Z,100004.40
2022-08-22T04:55:19.067Z,100001.98
2022-08-22T04:56:21.063Z,100000.85
2022-08-22T04:57:19.061Z,100000.91
2022-08-22T04:58:21.063Z,99998.67
2022-08-22T04:59:14.063Z,99998.65
2022-08-22T05:00:11.064Z,99996.30
2022-08-22T05:01:21.135Z,99998.32
2022-08-22T05:02:12.063Z,99993.54
2022-08-22T05:03:14.070Z,99992.96
2022-08-22T05:04:15.065Z,99992.49
2022-08-22T05:05:17.066Z,99991.13
2022-08-22T05:06:11.065Z,99991.03
2022-08-22T05:07:21.066Z,99991.48
2022-08-22T05:08:15.061Z,99989.60
2022-08-22T05:09:16.229Z,99986.48
2022-08-22T05:10:16.071Z,99986.07
2022-08-22T05:11:11.063Z,99986.52
2022-08-22T05:12:11.063Z,99985.80
2022-08-22T05:13:21.066Z,99983.94
2022-08-22T05:14:19.078Z,99983.42
2022-08-22T05:15:23.174Z,99985.31
2022-08-22T05:16:18.107Z,99982.18
2022-08-22T05:17:15.578Z,99985.87
2022-08-22T05:18:16.069Z,99982.41
2022-08-22T05:19:22.972Z,99979.77
2022-08-22T05:20:16.074Z,99979.37
2022-08-22T05:21:11.160Z,99978.11
2022-08-22T05:22:17.065Z,99978.12
2022-08-22T05:23:19.058Z,99979.72
2022-08-22T05:24:15.056Z,99979.05
2022-08-22T05:25:19.059Z,99981.62
2022-08-22T05:26:12.060Z,99981.52
2022-08-22T05:27:16.060Z,99985.06
2022-08-22T05:28:17.058Z,99986.20
2022-08-22T05:29:11.059Z,99987.78
2022-08-22T05:30:18.061Z,99985.24
2022-08-22T05:31:18.057Z,99987.65
2022-08-22T05:32:19.061Z,99987.82
2022-08-22T05:33:21.059Z,99986.27
2022-08-22T05:34:16.060Z,99989.43
2022-08-22T05:35:11.067Z,99990.50
2022-08-22T05:36:16.060Z,99986.53
2022-08-22T05:37:17.060Z,99987.26
2022-08-22T05:38:14.067Z,99988.30
2022-08-22T05:39:19.061Z,99985.48
2022-08-22T05:40:16.095Z,99989.26
2022-08-22T05:41:11.063Z,99987.64
2022-08-22T05:42:15.066Z,99986.44
2022-08-22T05:43:12.065Z,99986.51
2022-08-22T05:44:19.060Z,99985.65
2022-08-22T05:45:11.582Z,99985.97
2022-08-22T05:46:21.067Z,99985.11
2022-08-22T05:47:21.736Z,99983.78
2022-08-22T05:48:17.058Z,99986.25
2022-08-22T05:49:19.062Z,99991.59
2022-08-22T05:50:14.109Z,99993.57
2022-08-22T05:51:19.059Z,99996.48
2022-08-22T05:52:22.597Z,99997.34
2022-08-22T05:53:20.063Z,99998.22
2022-08-22T05:54:17.064Z,99998.16
2022-08-22T05:55:19.065Z,99999.62
2022-08-22T05:56:19.060Z,100000.40
2022-08-22T05:57:21.057Z,100000.29
2022-08-22T05:58:19.062Z,99999.64
2022-08-22T05:59:21.064Z,100002.22
2022-08-22T06:00:14.089Z,100000.89
2022-08-22T06:01:19.118Z,99998.58
2022-08-22T06:02:20.075Z,99997.36
2022-08-22T06:03:19.062Z,99996.39
2022-08-22T06:04:19.071Z,99993.62
2022-08-22T06:05:12.147Z,99996.52
2022-08-22T06:06:16.062Z,99996.19
2022-08-22T06:07:17.080Z,100000.55
2022-08-22T06:08:19.066Z,100000.37
2022-08-22T06:09:18.079Z,99998.48
2022-08-22T06:10:19.066Z,99997.22
2022-08-22T06:11:16.064Z,99994.38
2022-08-22T06:12:21.921Z,99993.20
2022-08-22T06:13:17.066Z,99990.75
2022-08-22T06:14:24.777Z,99988.71
2022-08-22T06:15:17.066Z,99986.20
2022-08-22T06:16:19.063Z,99987.32
2022-08-22T06:17:15.060Z,99986.75
2022-08-22T06:18:13.067Z,99989.89
2022-08-22T06:19:19.938Z,99991.78
2022-08-22T06:20:15.341Z,99990.35
2022-08-22T06:21:17.060Z,99989.67
2022-08-22T06:22:13.751Z,99985.27
2022-08-22T06:23:14.071Z,99982.02
2022-08-22T06:24:16.056Z,99983.97
2022-08-22T06:25:16.058Z,99982.36
2022-08-22T06:26:20.178Z,99982.25
2022-08-22T06:27:14.096Z,99982.44
2022-08-22T06:28:13.054Z,99983.69
2022-08-22T06:29:15.061Z,99985.94
2022-08-22T06:30:13.060Z,99987.62
2022-08-22T06:31:16.058Z,99988.66
2022-08-22T06:32:14.061Z,99988.22
2022-08-22T06:33:15.068Z,99987.18
2022-08-22T06:34:18.061Z,99986.98
2022-08-22T06:35:17.057Z,99982.72
2022-08-22T06:36:20.647Z,99982.19
2022-08-22T06:37:16.066Z,99985.66
2022-08-22T06:38:11.061Z,99987.17
2022-08-22T06:39:19.059Z,99985.58
2022-08-22T06:40:12.154Z,99987.91
2022-08-22T06:41:11.068Z,99987.71
2022-08-22T06:42:17.255Z,99987.53
2022-08-22T06:43:11.059Z,99987.42
2022-08-22T06:44:13.059Z,99990.40
2022-08-22T06:45:18.061Z,99996.00
2022-08-22T06:46:11.070Z,99998.44
2022-08-22T06:47:14.061Z,99998.43
2022-08-22T06:48:18.076Z,100000.95
2022-08-22T06:49:11.071Z,99999.11
2022-08-22T06:50:19.060Z,99998.40
2022-08-22T06:51:11.059Z,99999.99
2022-08-22T06:52:17.064Z,100002.45
2022-08-22T06:53:16.069Z,99999.60
2022-08-22T06:54:19.061Z,100000.70
2022-08-22T06:55:11.066Z,99999.91
2022-08-22T06:56:11.072Z,99997.60
2022-08-22T06:57:19.063Z,99994.02
2022-08-22T06:58:16.061Z,99989.58
2022-08-22T06:59:18.066Z,99989.84
2022-08-22T07:00:13.062Z,99991.62
2022-08-22T07:01:16.193Z,99994.55
2022-08-22T07:02:21.063Z,99995.42
2022-08-22T07:03:22.066Z,99993.75
2022-08-22T07:04:11.063Z,99990.25
2022-08-22T07:05:20.065Z,99993.29
2022-08-22T07:06:14.065Z,99992.47
2022-08-22T07:07:11.065Z,99993.08
2022-08-22T07:08:15.067Z,99995.75
2022-08-22T07:09:19.065Z,99993.19
2022-08-22T07:10:13.063Z,99990.46
2022-08-22T07:11:19.070Z,99989.00
2022-08-22T07:12:16.075Z,99986.84
2022-08-22T07:13:15.064Z,99987.90
2022-08-22T07:14:14.063Z,99986.41
2022-08-22T07:15:18.067Z,99986.76
2022-08-22T07:16:11.073Z,99982.91
2022-08-22T07:17:20.065Z,99981.48
2022-08-22T07:18:19.063Z,99978.92
2022-08-22T07:19:15.064Z,99971.81
2022-08-22T07:20:19.059Z,99971.25
2022-08-22T07:21:12.059Z,99967.70
2022-08-22T07:22:21.060Z,99963.64
2022-08-22T07:23:16.056Z,99962.40
2022-08-22T07:24:11.065Z,99962.79
2022-08-22T07:25:14.060Z,99964.76
2022-08-22T07:26:21.053Z,99964.24
2022-08-22T07:27:23.057Z,99969.93
2022-08-22T07:28:19.062Z,99970.86
2022-08-22T07:29:23.168Z,99972.25
2022-08-22T07:30:13.211Z,99971.60
2022-08-22T07:31:21.058Z,99968.26
2022-08-22T07:32:19.059Z,99968.77
2022-08-22T07:33:26.742Z,99972.41
2022-08-22T07:34:23.117Z,99980.82
2022-08-22T07:35:19.060Z,99980.98
2022-08-22T07:36:19.059Z,99979.02
2022-08-22T07:37:21.059Z,99979.04
2022-08-22T07:38:19.062Z,99983.11
2022-08-22T07:39:21.475Z,99980.34
2022-08-22T07:40:19.162Z,99982.43
2022-08-22T07:41:16.059Z,99979.27
2022-08-22T07:42:16.059Z,99981.67
2022-08-22T07:43:19.075Z,99975.69
2022-08-22T07:44:18.070Z,99971.97
2022-08-22T07:45:19.061Z,99973.20
2022-08-22T07:46:19.057Z,99972.88
2022-08-22T07:47:16.075Z,99976.48
2022-08-22T07:48:25.595Z,99976.50
2022-08-22T07:49:21.086Z,99970.43
2022-08-22T07:50:16.062Z,99967.71
2022-08-22T07:51:13.057Z,99967.23
2022-08-22T07:52:12.062Z,99964.43
2022-08-22T07:53:19.063Z,99969.43
2022-08-22T07:54:12.062Z,99971.74
2022-08-22T07:55:20.061Z,99970.00
2022-08-22T07:56:20.069Z,99973.45
2022-08-22T07:57:21.070Z,99974.89
2022-08-22T07:58:11.064Z,99975.91
2022-08-22T07:59:16.065Z,99979.59
2022-08-22T08:00:15.066Z,99977.53
2022-08-22T08:01:14.155Z,99975.62
2022-08-22T08:02:15.063Z,99975.30
2022-08-22T08:03:11.065Z,99970.86
2022-08-22T08:04:19.065Z,99968.59
2022-08-22T08:05:12.066Z,99970.11
2022-08-22T08:06:11.063Z,99974.16
2022-08-22T08:07:12.089Z,99974.15
2022-08-22T08:08:18.065Z,99975.10
2022-08-22T08:09:13.065Z,99976.35
2022-08-22T08:10:21.067Z,99978.92
2022-08-22T08:11:14.065Z,99978.92
2022-08-22T08:12:12.073Z,99979.13
2022-08-22T08:13:16.064Z,99971.18
2022-08-22T08:14:13.695Z,99973.79
2022-08-22T08:15:15.074Z,99972.03
2022-08-22T08:16:16.066Z,99974.04
2022-08-22T08:17:21.065Z,99966.98
2022-08-22T08:18:16.068Z,99965.61
2022-08-22T08:19:11.066Z,99964.85
2022-08-22T08:20:12.067Z,99959.86
2022-08-22T08:21:15.057Z,99957.25
2022-08-22T08:22:15.058Z,99960.29
2022-08-22T08:23:11.067Z,99957.92
2022-08-22T08:24:14.059Z,99957.64
2022-08-22T08:25:12.061Z,99962.10
2022-08-22T08:26:16.067Z,99962.13
2022-08-22T08:27:17.059Z,99964.78
2022-08-22T08:28:15.057Z,99961.43
2022-08-22T08:29:11.056Z,99964.61
2022-08-22T08:30:15.676Z,99963.26
2022-08-22T08:31:16.063Z,99966.75
2022-08-22T08:32:13.055Z,99966.82
2022-08-22T08:33:26.215Z,99960.69
2022-08-22T08:34:18.085Z,99966.54
2022-08-22T08:35:19.058Z,99968.15
2022-08-22T08:36:19.057Z,99970.67
2022-08-22T08:37:19.061Z,99964.62
2022-08-22T08:38:20.072Z,99964.58
2022-08-22T08:39:22.067Z,99962.69
2022-08-22T08:40:19.104Z,99958.67
2022-08-22T08:41:22.706Z,99958.00
2022-08-22T08:42:19.062Z,99955.13
2022-08-22T08:43:23.072Z,99955.93
2022-08-22T08:44:19.073Z,99955.53
2022-08-22T08:45:21.062Z,99955.65
2022-08-22T08:46:20.059Z,99954.14
2022-08-22T08:47:19.063Z,99955.45
2022-08-22T08:48:19.064Z,99960.81
2022-08-22T08:49:24.113Z,99960.24
2022-08-22T08:50:19.063Z,99960.19
2022-08-22T08:51:18.060Z,99960.30
2022-08-22T08:52:21.064Z,99963.21
2022-08-22T08:53:19.063Z,99963.11
2022-08-22T08:54:19.075Z,99967.59
2022-08-22T08:55:22.777Z,99963.42
2022-08-22T08:56:21.061Z,99960.41
2022-08-22T08:57:21.058Z,99962.13
2022-08-22T08:58:23.063Z,99959.86
2022-08-22T08:59:23.065Z,99956.60
2022-08-22T09:00:14.065Z,99954.39
2022-08-22T09:01:19.649Z,99956.66
2022-08-22T09:02:20.680Z,99949.02
2022-08-22T09:03:19.628Z,99953.88
2022-08-22T09:04:23.735Z,99957.07
2022-08-22T09:06:21.074Z,99961.84
2022-08-22T09:07:19.063Z,99964.59
2022-08-22T09:08:19.061Z,99965.04
2022-08-22T09:09:19.064Z,99960.61
2022-08-22T09:10:19.082Z,99960.95
2022-08-22T09:11:19.068Z,99964.51
2022-08-22T09:12:21.085Z,99961.10
2022-08-22T09:13:19.063Z,99960.36
2022-08-22T09:14:21.066Z,99953.82
2022-08-22T09:15:19.073Z,99959.30
2022-08-22T09:16:19.116Z,99958.14
2022-08-22T09:17:19.065Z,99957.06
2022-08-22T09:18:19.062Z,99957.29
2022-08-22T09:19:19.065Z,99954.18
2022-08-22T09:20:21.064Z,99956.93
2022-08-22T09:21:30.800Z,99956.86
2022-08-22T09:22:21.068Z,99956.47
2022-08-22T09:23:21.056Z,99957.75
2022-08-22T09:24:19.055Z,99953.34
2022-08-22T09:25:19.057Z,99953.92
2022-08-22T09:26:19.076Z,99957.86
2022-08-22T09:27:17.058Z,99956.57
2022-08-22T09:28:19.056Z,99951.62
2022-08-22T09:29:21.054Z,99949.10
2022-08-22T09:30:12.061Z,99958.55
2022-08-22T09:31:32.816Z,99951.03
2022-08-22T09:32:21.089Z,99949.68
2022-08-22T09:33:17.060Z,99949.75
2022-08-22T09:34:24.166Z,99952.37
2022-08-22T09:35:22.502Z,99952.79
2022-08-22T09:36:18.060Z,99946.64
2022-08-22T09:37:19.060Z,99953.68
2022-08-22T09:38:19.063Z,99956.09
2022-08-22T09:39:17.057Z,99952.95
2022-08-22T09:40:16.041Z,99957.12
2022-08-22T09:40:22.236Z,99954.04
2022-08-22T09:41:21.090Z,99960.24
2022-08-22T09:42:19.061Z,99956.65
2022-08-22T09:43:14.058Z,99960.31
2022-08-22T09:44:21.065Z,99956.88
2022-08-22T09:45:19.063Z,99952.45
2022-08-22T09:46:21.062Z,99955.43
2022-08-22T09:47:24.654Z,99947.86
2022-08-22T09:48:21.084Z,99949.34
2022-08-22T09:49:21.070Z,99943.58
2022-08-22T09:50:19.063Z,99944.08
2022-08-22T09:51:32.262Z,99935.62
2022-08-22T09:52:33.148Z,99933.19
2022-08-22T09:53:23.357Z,99933.19
2022-08-22T09:54:19.067Z,99931.08
2022-08-22T09:55:19.061Z,99927.77
2022-08-22T09:56:18.071Z,99921.25
2022-08-22T09:57:19.069Z,99919.80
2022-08-22T09:58:19.076Z,99916.35
2022-08-22T09:59:19.064Z,99914.41
2022-08-22T10:00:22.104Z,99913.45
2022-08-22T10:01:21.179Z,99913.50
2022-08-22T10:02:19.065Z,99911.28
2022-08-22T10:03:19.064Z,99911.13
2022-08-22T10:04:19.555Z,99910.82
2022-08-22T10:05:41.134Z,99905.52
2022-08-22T10:06:20.747Z,99902.23
2022-08-22T10:07:19.072Z,99903.70
2022-08-22T10:08:23.538Z,99901.84
2022-08-22T10:09:31.137Z,99903.53
2022-08-22T10:10:23.067Z,99903.79
2022-08-22T10:11:19.589Z,99901.48
2022-08-22T10:12:19.065Z,99901.38
2022-08-22T10:13:21.092Z,99905.21
2022-08-22T10:14:16.067Z,99901.21
2022-08-22T10:15:20.243Z,99895.73
2022-08-22T10:16:21.063Z,99895.09
2022-08-22T10:17:21.775Z,99896.43
2022-08-22T10:18:21.075Z,99893.68
2022-08-22T10:19:21.068Z,99894.42
2022-08-22T10:20:21.060Z,99886.73
2022-08-22T10:21:21.055Z,99892.29
2022-08-22T10:22:19.055Z,99898.49
2022-08-22T10:23:21.237Z,99889.25
2022-08-22T10:24:25.145Z,99889.36
2022-08-22T10:25:23.095Z,99886.74
2022-08-22T10:26:22.584Z,99888.75
2022-08-22T10:27:18.072Z,99890.00
2022-08-22T10:28:21.241Z,99882.38
2022-08-22T10:29:19.059Z,99879.09
2022-08-22T10:30:18.067Z,99880.34
2022-08-22T10:31:19.059Z,99882.84
2022-08-22T10:32:19.057Z,99877.16
2022-08-22T10:33:21.087Z,99888.26
2022-08-22T10:34:20.082Z,99884.08
2022-08-22T10:35:21.067Z,99888.61
2022-08-22T10:36:19.061Z,99897.05
2022-08-22T10:37:23.757Z,99893.57
2022-08-22T10:38:21.059Z,99888.97
2022-08-22T10:39:13.059Z,99893.42
2022-08-22T10:40:16.125Z,99889.09
2022-08-22T10:41:18.061Z,99888.27
2022-08-22T10:42:19.060Z,99888.62
2022-08-22T10:43:18.061Z,99880.16
2022-08-22T10:44:21.065Z,99886.18
2022-08-22T10:45:23.635Z,99889.97
2022-08-22T10:46:18.084Z,99887.35
2022-08-22T10:47:15.063Z,99887.91
2022-08-22T10:48:21.057Z,99885.60
2022-08-22T10:49:18.100Z,99883.36
2022-08-22T10:50:20.202Z,99887.82
2022-08-22T10:51:18.063Z,99885.54
2022-08-22T10:52:18.061Z,99885.02
2022-08-22T10:53:28.902Z,99883.34
2022-08-22T10:54:21.088Z,99884.37
2022-08-22T10:55:19.070Z,99877.06
2022-08-22T10:56:21.403Z,99885.94
2022-08-22T10:57:21.064Z,99888.25
2022-08-22T10:58:13.062Z,99880.80
2022-08-22T10:59:19.074Z,99878.40
2022-08-22T11:00:22.566Z,99883.14
2022-08-22T11:01:38.503Z,99882.77
2022-08-22T11:02:21.087Z,99878.95
2022-08-22T11:03:21.866Z,99877.49
2022-08-22T11:04:28.292Z,99874.81
2022-08-22T11:05:21.076Z,99874.62
2022-08-22T11:06:18.072Z,99874.79
2022-08-22T11:07:19.066Z,99875.31
2022-08-22T11:08:21.064Z,99874.91
2022-08-22T11:09:19.064Z,99876.00
2022-08-22T11:10:21.066Z,99873.36
2022-08-22T11:11:19.075Z,99871.25
2022-08-22T11:12:19.068Z,99877.26
2022-08-22T11:13:19.065Z,99870.33
2022-08-22T11:14:19.064Z,99871.52
2022-08-22T11:15:16.069Z,99871.97
2022-08-22T11:16:21.792Z,99868.08
2022-08-22T11:17:27.951Z,99868.86
2022-08-22T11:18:21.076Z,99868.47
2022-08-22T11:19:22.068Z,99867.50
2022-08-22T11:20:19.604Z,99862.00
2022-08-22T11:21:17.061Z,99864.95
2022-08-22T11:22:19.058Z,99862.16
2022-08-22T11:23:19.056Z,99863.82
2022-08-22T11:24:35.357Z,99866.68
2022-08-22T11:25:35.893Z,99863.43
2022-08-22T11:26:33.654Z,99862.88
2022-08-22T11:27:34.474Z,99861.00
2022-08-22T11:28:21.075Z,99853.96
2022-08-22T11:29:21.061Z,99860.03
2022-08-22T11:30:18.686Z,99858.20